sensor_id;sensor_type;location;lat;lon;timestamp;pressure;altitude;pressure_sealevel;temperature;humidity
33454;BME280;39400;49.744;7.012;2023-07-20T00:01:26;95876.94;;;20.23;55.38
33454;BME280;39400;49.744;7.012;2023-07-20T00:03:52;95880.03;;;20.25;55.32
33454;BME280;39400;49.744;7.012;2023-07-20T00:06:17;95876.94;;;20.32;54.87
33454;BME280;39400;49.744;7.012;2023-07-20T00:08:42;95877.28;;;20.43;55.27
33454;BME280;39400;49.744;7.012;2023-07-20T00:11:07;95875.25;;;20.75;54.25
33454;BME280;39400;49.744;7.012;2023-07-20T00:13:33;95869.34;;;20.82;54.12
33454;BME280;39400;49.744;7.012;2023-07-20T00:15:58;95872.16;;;20.82;54.33
33454;BME280;39400;49.744;7.012;2023-07-20T00:18:23;95866.81;;;20.57;54.92
33454;BME280;39400;49.744;7.012;2023-07-20T00:20:49;95868.69;;;20.51;55.12
33454;BME280;39400;49.744;7.012;2023-07-20T00:23:14;95869.97;;;19.97;56.27
33454;BME280;39400;49.744;7.012;2023-07-20T00:25:39;95876.47;;;19.49;57.81
33454;BME280;39400;49.744;7.012;2023-07-20T00:28:04;95877.03;;;19.00;59.27
33454;BME280;39400;49.744;7.012;2023-07-20T00:30:30;95874.28;;;19.44;57.92
33454;BME280;39400;49.744;7.012;2023-07-20T00:32:55;95870.91;;;19.28;58.41
33454;BME280;39400;49.744;7.012;2023-07-20T00:35:21;95881.16;;;19.53;57.44
33454;BME280;39400;49.744;7.012;2023-07-20T00:37:47;95876.47;;;19.49;57.65
33454;BME280;39400;49.744;7.012;2023-07-20T00:40:12;95878.53;;;19.71;57.25
33454;BME280;39400;49.744;7.012;2023-07-20T00:42:37;95870.28;;;19.67;57.25
33454;BME280;39400;49.744;7.012;2023-07-20T00:45:03;95861.06;;;19.58;57.59
33454;BME280;39400;49.744;7.012;2023-07-20T00:47:28;95871.56;;;19.54;57.91
33454;BME280;39400;49.744;7.012;2023-07-20T00:49:54;95876.78;;;19.08;59.64
33454;BME280;39400;49.744;7.012;2023-07-20T00:52:21;95870.78;;;19.09;59.64
33454;BME280;39400;49.744;7.012;2023-07-20T00:54:49;95848.81;;;19.33;58.24
33454;BME280;39400;49.744;7.012;2023-07-20T00:57:14;95873.13;;;19.55;58.27
33454;BME280;39400;49.744;7.012;2023-07-20T00:59:40;95863.97;;;19.76;57.48
33454;BME280;39400;49.744;7.012;2023-07-20T01:02:06;95870.47;;;19.73;57.49
33454;BME280;39400;49.744;7.012;2023-07-20T01:04:31;95872.34;;;19.54;58.14
33454;BME280;39400;49.744;7.012;2023-07-20T01:07:01;95867.34;;;19.49;58.17
33454;BME280;39400;49.744;7.012;2023-07-20T01:10:12;95874.75;;;19.65;57.87
33454;BME280;39400;49.744;7.012;2023-07-20T01:12:42;95869.63;;;19.85;57.29
33454;BME280;39400;49.744;7.012;2023-07-20T01:15:08;95875.19;;;19.63;57.84
33454;BME280;39400;49.744;7.012;2023-07-20T01:17:34;95874.81;;;19.74;57.49
33454;BME280;39400;49.744;7.012;2023-07-20T01:20:00;95867.53;;;19.55;58.32
33454;BME280;39400;49.744;7.012;2023-07-20T01:28:37;95869.75;;;18.56;61.98
33454;BME280;39400;49.744;7.012;2023-07-20T01:33:54;95858.97;;;19.27;60.37
33454;BME280;39400;49.744;7.012;2023-07-20T01:36:22;95859.16;;;19.55;59.29
33454;BME280;39400;49.744;7.012;2023-07-20T01:38:49;95859.09;;;19.45;59.35
33454;BME280;39400;49.744;7.012;2023-07-20T01:41:15;95856.25;;;18.67;62.19
33454;BME280;39400;49.744;7.012;2023-07-20T01:43:40;95853.41;;;19.27;60.39
33454;BME280;39400;49.744;7.012;2023-07-20T01:46:05;95849.50;;;19.46;59.62
33454;BME280;39400;49.744;7.012;2023-07-20T01:48:31;95849.84;;;19.48;59.74
33454;BME280;39400;49.744;7.012;2023-07-20T01:50:56;95849.13;;;19.13;60.06
33454;BME280;39400;49.744;7.012;2023-07-20T01:53:22;95844.56;;;19.29;59.17
33454;BME280;39400;49.744;7.012;2023-07-20T01:55:47;95851.59;;;19.33;58.78
33454;BME280;39400;49.744;7.012;2023-07-20T01:58:13;95851.00;;;19.38;58.31
33454;BME280;39400;49.744;7.012;2023-07-20T02:00:38;95856.56;;;19.38;58.10
33454;BME280;39400;49.744;7.012;2023-07-20T02:03:04;95851.84;;;19.26;58.31
33454;BME280;39400;49.744;7.012;2023-07-20T02:05:32;95844.84;;;19.21;58.50
33454;BME280;39400;49.744;7.012;2023-07-20T02:07:58;95849.13;;;19.35;58.17
33454;BME280;39400;49.744;7.012;2023-07-20T02:10:23;95833.28;;;19.32;58.12
33454;BME280;39400;49.744;7.012;2023-07-20T02:12:48;95842.78;;;19.13;58.96
33454;BME280;39400;49.744;7.012;2023-07-20T02:15:14;95839.91;;;19.04;59.78
33454;BME280;39400;49.744;7.012;2023-07-20T02:17:40;95844.19;;;18.95;59.93
33454;BME280;39400;49.744;7.012;2023-07-20T02:20:05;95846.59;;;19.06;59.96
33454;BME280;39400;49.744;7.012;2023-07-20T02:22:31;95849.31;;;18.84;60.73
33454;BME280;39400;49.744;7.012;2023-07-20T02:24:56;95847.88;;;18.92;60.40
33454;BME280;39400;49.744;7.012;2023-07-20T02:27:22;95836.78;;;19.01;60.68
33454;BME280;39400;49.744;7.012;2023-07-20T02:29:47;95837.44;;;19.06;60.14
33454;BME280;39400;49.744;7.012;2023-07-20T02:32:12;95842.84;;;18.87;60.74
33454;BME280;39400;49.744;7.012;2023-07-20T02:34:38;95845.19;;;18.89;60.74
33454;BME280;39400;49.744;7.012;2023-07-20T02:37:03;95843.69;;;18.62;61.68
33454;BME280;39400;49.744;7.012;2023-07-20T02:39:29;95845.09;;;18.67;61.56
33454;BME280;39400;49.744;7.012;2023-07-20T02:41:55;95850.41;;;18.99;60.93
33454;BME280;39400;49.744;7.012;2023-07-20T02:44:20;95847.91;;;19.01;60.66
33454;BME280;39400;49.744;7.012;2023-07-20T02:46:45;95851.66;;;18.86;61.39
33454;BME280;39400;49.744;7.012;2023-07-20T02:49:11;95820.88;;;18.42;62.05
33454;BME280;39400;49.744;7.012;2023-07-20T02:51:36;95853.59;;;18.63;62.09
33454;BME280;39400;49.744;7.012;2023-07-20T02:54:02;95856.53;;;18.94;60.83
33454;BME280;39400;49.744;7.012;2023-07-20T02:56:27;95806.78;;;18.71;60.54
33454;BME280;39400;49.744;7.012;2023-07-20T02:58:52;95852.59;;;19.05;60.28
33454;BME280;39400;49.744;7.012;2023-07-20T03:01:18;95857.41;;;19.04;60.03
33454;BME280;39400;49.744;7.012;2023-07-20T03:03:43;95860.25;;;18.91;60.43
33454;BME280;39400;49.744;7.012;2023-07-20T03:06:08;95849.09;;;18.91;60.01
33454;BME280;39400;49.744;7.012;2023-07-20T03:08:34;95855.03;;;18.68;60.97
33454;BME280;39400;49.744;7.012;2023-07-20T03:10:59;95858.03;;;18.86;60.34
33454;BME280;39400;49.744;7.012;2023-07-20T03:13:24;95856.78;;;18.87;59.95
33454;BME280;39400;49.744;7.012;2023-07-20T03:15:52;95853.22;;;18.87;60.06
33454;BME280;39400;49.744;7.012;2023-07-20T03:18:17;95858.66;;;18.90;60.07
33454;BME280;39400;49.744;7.012;2023-07-20T03:20:42;95852.69;;;18.79;60.74
33454;BME280;39400;49.744;7.012;2023-07-20T03:23:08;95850.91;;;18.85;60.93
33454;BME280;39400;49.744;7.012;2023-07-20T03:25:33;95851.28;;;18.74;60.93
33454;BME280;39400;49.744;7.012;2023-07-20T03:27:59;95853.16;;;18.65;61.59
33454;BME280;39400;49.744;7.012;2023-07-20T03:30:25;95865.00;;;18.43;63.21
33454;BME280;39400;49.744;7.012;2023-07-20T03:32:51;95860.56;;;17.82;63.48
33454;BME280;39400;49.744;7.012;2023-07-20T03:35:17;95861.91;;;18.03;62.28
33454;BME280;39400;49.744;7.012;2023-07-20T03:37:42;95858.66;;;17.92;62.84
33454;BME280;39400;49.744;7.012;2023-07-20T03:40:07;95857.78;;;17.95;62.84
33454;BME280;39400;49.744;7.012;2023-07-20T03:42:33;95861.03;;;18.19;61.76
33454;BME280;39400;49.744;7.012;2023-07-20T03:44:58;95863.34;;;18.08;62.40
33454;BME280;39400;49.744;7.012;2023-07-20T03:47:25;95866.44;;;17.97;62.92
33454;BME280;39400;49.744;7.012;2023-07-20T03:49:51;95860.56;;;17.82;63.75
33454;BME280;39400;49.744;7.012;2023-07-20T03:52:16;95866.34;;;18.00;63.11
33454;BME280;39400;49.744;7.012;2023-07-20T03:54:41;95860.09;;;18.22;62.59
33454;BME280;39400;49.744;7.012;2023-07-20T03:57:07;95867.00;;;18.17;62.43
33454;BME280;39400;49.744;7.012;2023-07-20T03:59:32;95866.91;;;18.08;62.96
33454;BME280;39400;49.744;7.012;2023-07-20T04:01:57;95866.13;;;18.08;63.34
33454;BME280;39400;49.744;7.012;2023-07-20T04:04:23;95870.78;;;18.11;63.37
33454;BME280;39400;49.744;7.012;2023-07-20T04:06:48;95873.03;;;18.16;63.38
33454;BME280;39400;49.744;7.012;2023-07-20T04:09:13;95871.69;;;17.95;64.45
33454;BME280;39400;49.744;7.012;2023-07-20T04:11:39;95868.22;;;18.03;64.18
33454;BME280;39400;49.744;7.012;2023-07-20T04:14:04;95869.91;;;18.14;64.06
33454;BME280;39400;49.744;7.012;2023-07-20T04:16:30;95859.66;;;17.85;65.13
33454;BME280;39400;49.744;7.012;2023-07-20T04:18:56;95866.44;;;17.97;65.17
33454;BME280;39400;49.744;7.012;2023-07-20T04:21:22;95864.78;;;17.99;64.98
33454;BME280;39400;49.744;7.012;2023-07-20T04:23:47;95865.13;;;17.89;65.53
33454;BME280;39400;49.744;7.012;2023-07-20T04:26:13;95869.91;;;18.14;64.69
33454;BME280;39400;49.744;7.012;2023-07-20T04:28:38;95865.47;;;18.29;64.22
33454;BME280;39400;49.744;7.012;2023-07-20T04:31:15;95862.78;;;18.25;64.64
33454;BME280;39400;49.744;7.012;2023-07-20T04:33:42;95866.94;;;17.53;67.31
33454;BME280;39400;49.744;7.012;2023-07-20T04:36:08;95860.72;;;17.75;66.74
33454;BME280;39400;49.744;7.012;2023-07-20T04:38:34;95851.00;;;18.09;65.16
33454;BME280;39400;49.744;7.012;2023-07-20T04:41:09;95863.47;;;17.91;65.56
33454;BME280;39400;49.744;7.012;2023-07-20T04:43:42;95871.91;;;18.00;64.53
33454;BME280;39400;49.744;7.012;2023-07-20T04:46:11;95868.31;;;17.87;64.63
33454;BME280;39400;49.744;7.012;2023-07-20T04:48:37;95864.22;;;17.92;64.29
33454;BME280;39400;49.744;7.012;2023-07-20T04:51:03;95870.03;;;17.55;65.75
33454;BME280;39400;49.744;7.012;2023-07-20T04:53:29;95864.88;;;17.28;67.73
33454;BME280;39400;49.744;7.012;2023-07-20T04:55:55;95862.50;;;17.69;66.46
33454;BME280;39400;49.744;7.012;2023-07-20T04:58:22;95858.81;;;17.46;67.42
33454;BME280;39400;49.744;7.012;2023-07-20T05:00:49;95854.19;;;17.27;68.75
33454;BME280;39400;49.744;7.012;2023-07-20T05:03:14;95864.22;;;17.37;68.76
33454;BME280;39400;49.744;7.012;2023-07-20T05:05:41;95874.47;;;17.40;68.93
33454;BME280;39400;49.744;7.012;2023-07-20T05:08:06;95879.03;;;17.18;69.70
33454;BME280;39400;49.744;7.012;2023-07-20T05:10:31;95874.16;;;17.51;68.64
33454;BME280;39400;49.744;7.012;2023-07-20T05:12:57;95878.25;;;17.46;69.83
33454;BME280;39400;49.744;7.012;2023-07-20T05:15:22;95880.25;;;17.46;70.17
33454;BME280;39400;49.744;7.012;2023-07-20T05:17:47;95877.25;;;17.82;69.16
33454;BME280;39400;49.744;7.012;2023-07-20T05:20:13;95874.13;;;17.93;69.29
33454;BME280;39400;49.744;7.012;2023-07-20T05:22:38;95872.34;;;17.86;69.64
33454;BME280;39400;49.744;7.012;2023-07-20T05:25:04;95881.44;;;17.74;71.09
33454;BME280;39400;49.744;7.012;2023-07-20T05:27:29;95877.03;;;17.89;71.14
33454;BME280;39400;49.744;7.012;2023-07-20T05:29:55;95877.75;;;17.35;73.96
33454;BME280;39400;49.744;7.012;2023-07-20T05:32:20;95877.16;;;17.56;73.99
33454;BME280;39400;49.744;7.012;2023-07-20T05:34:45;95866.50;;;17.68;74.58
33454;BME280;39400;49.744;7.012;2023-07-20T05:37:10;95865.34;;;17.52;75.99
33454;BME280;39400;49.744;7.012;2023-07-20T05:39:36;95867.13;;;17.17;78.62
33454;BME280;39400;49.744;7.012;2023-07-20T05:42:01;95874.84;;;17.26;79.33
33454;BME280;39400;49.744;7.012;2023-07-20T05:44:26;95865.03;;;17.50;78.43
33454;BME280;39400;49.744;7.012;2023-07-20T05:46:52;95868.47;;;17.54;78.14
33454;BME280;39400;49.744;7.012;2023-07-20T05:49:17;95871.00;;;17.78;77.31
33454;BME280;39400;49.744;7.012;2023-07-20T05:51:42;95875.13;;;17.86;77.29
33454;BME280;39400;49.744;7.012;2023-07-20T05:54:08;95876.69;;;18.00;76.91
33454;BME280;39400;49.744;7.012;2023-07-20T05:56:33;95877.19;;;17.69;78.46
33454;BME280;39400;49.744;7.012;2023-07-20T05:58:58;95889.25;;;17.79;79.07
33454;BME280;39400;49.744;7.012;2023-07-20T06:01:23;95889.47;;;17.97;78.65
33454;BME280;39400;49.744;7.012;2023-07-20T06:03:49;95883.47;;;17.86;79.75
33454;BME280;39400;49.744;7.012;2023-07-20T06:06:14;95884.94;;;18.16;78.52
33454;BME280;39400;49.744;7.012;2023-07-20T06:08:39;95892.19;;;18.39;77.71
33454;BME280;39400;49.744;7.012;2023-07-20T06:11:05;95884.72;;;18.36;77.13
33454;BME280;39400;49.744;7.012;2023-07-20T06:13:30;95882.13;;;17.49;82.46
33454;BME280;39400;49.744;7.012;2023-07-20T06:15:55;95893.72;;;18.40;77.99
33454;BME280;39400;49.744;7.012;2023-07-20T06:18:24;95896.63;;;17.98;79.56
33454;BME280;39400;49.744;7.012;2023-07-20T06:20:52;95900.63;;;18.23;78.50
33454;BME280;39400;49.744;7.012;2023-07-20T06:23:20;95896.19;;;18.25;78.06
33454;BME280;39400;49.744;7.012;2023-07-20T06:25:45;95899.72;;;18.00;78.81
33454;BME280;39400;49.744;7.012;2023-07-20T06:28:12;95902.53;;;18.26;78.74
33454;BME280;39400;49.744;7.012;2023-07-20T06:30:38;95893.41;;;18.25;78.93
33454;BME280;39400;49.744;7.012;2023-07-20T06:33:03;95906.75;;;18.30;78.86
33454;BME280;39400;49.744;7.012;2023-07-20T06:35:29;95901.28;;;18.52;78.64
33454;BME280;39400;49.744;7.012;2023-07-20T06:37:54;95905.47;;;19.30;74.11
33454;BME280;39400;49.744;7.012;2023-07-20T06:40:20;95903.97;;;19.38;73.10
33454;BME280;39400;49.744;7.012;2023-07-20T06:42:45;95903.41;;;19.43;73.02
33454;BME280;39400;49.744;7.012;2023-07-20T06:45:11;95903.38;;;19.78;72.35
33454;BME280;39400;49.744;7.012;2023-07-20T06:47:39;95894.59;;;19.45;72.71
33454;BME280;39400;49.744;7.012;2023-07-20T06:50:08;95901.66;;;19.37;72.32
33454;BME280;39400;49.744;7.012;2023-07-20T06:52:34;95900.06;;;19.36;73.04
33454;BME280;39400;49.744;7.012;2023-07-20T06:54:59;95904.88;;;19.35;72.76
33454;BME280;39400;49.744;7.012;2023-07-20T06:57:25;95905.03;;;18.84;74.66
33454;BME280;39400;49.744;7.012;2023-07-20T06:59:50;95908.09;;;19.12;73.26
33454;BME280;39400;49.744;7.012;2023-07-20T07:02:16;95909.41;;;19.20;73.30
33454;BME280;39400;49.744;7.012;2023-07-20T07:04:41;95910.31;;;19.17;73.44
33454;BME280;39400;49.744;7.012;2023-07-20T07:07:07;95912.69;;;19.06;73.27
33454;BME280;39400;49.744;7.012;2023-07-20T07:09:32;95917.53;;;18.67;75.69
33454;BME280;39400;49.744;7.012;2023-07-20T07:11:58;95914.00;;;18.28;76.34
33454;BME280;39400;49.744;7.012;2023-07-20T07:14:23;95914.00;;;18.53;76.65
33454;BME280;39400;49.744;7.012;2023-07-20T07:16:48;95912.44;;;19.13;74.32
33454;BME280;39400;49.744;7.012;2023-07-20T07:19:14;95902.59;;;19.21;74.25
33454;BME280;39400;49.744;7.012;2023-07-20T07:21:39;95914.47;;;19.12;74.45
33454;BME280;39400;49.744;7.012;2023-07-20T07:24:05;95915.00;;;19.42;73.36
33454;BME280;39400;49.744;7.012;2023-07-20T07:26:30;95917.69;;;19.11;74.62
33454;BME280;39400;49.744;7.012;2023-07-20T07:28:55;95917.53;;;18.67;76.60
33454;BME280;39400;49.744;7.012;2023-07-20T07:31:21;95921.88;;;19.28;74.31
33454;BME280;39400;49.744;7.012;2023-07-20T07:33:46;95917.44;;;19.18;74.74
33454;BME280;39400;49.744;7.012;2023-07-20T07:36:11;95916.00;;;19.13;73.91
33454;BME280;39400;49.744;7.012;2023-07-20T07:38:37;95921.19;;;19.59;72.27
33454;BME280;39400;49.744;7.012;2023-07-20T07:41:02;95915.63;;;19.24;73.91
33454;BME280;39400;49.744;7.012;2023-07-20T07:43:27;95931.59;;;18.76;75.38
33454;BME280;39400;49.744;7.012;2023-07-20T07:45:54;95935.69;;;19.88;72.31
33454;BME280;39400;49.744;7.012;2023-07-20T07:48:19;95933.25;;;20.00;72.11
33454;BME280;39400;49.744;7.012;2023-07-20T07:50:45;95938.94;;;19.30;72.78
33454;BME280;39400;49.744;7.012;2023-07-20T07:53:10;95905.97;;;18.81;74.56
33454;BME280;39400;49.744;7.012;2023-07-20T07:55:35;95938.72;;;19.46;73.82
33454;BME280;39400;49.744;7.012;2023-07-20T07:58:00;95940.94;;;19.30;73.37
33454;BME280;39400;49.744;7.012;2023-07-20T08:00:26;95936.56;;;19.63;73.15
33454;BME280;39400;49.744;7.012;2023-07-20T08:02:51;95938.31;;;19.70;72.34
33454;BME280;39400;49.744;7.012;2023-07-20T08:05:17;95939.50;;;19.25;73.85
33454;BME280;39400;49.744;7.012;2023-07-20T08:07:42;95944.03;;;18.84;74.84
33454;BME280;39400;49.744;7.012;2023-07-20T08:10:08;95933.41;;;19.39;73.40
33454;BME280;39400;49.744;7.012;2023-07-20T08:12:33;95941.91;;;19.92;71.83
33454;BME280;39400;49.744;7.012;2023-07-20T08:14:59;95928.25;;;19.51;73.82
33454;BME280;39400;49.744;7.012;2023-07-20T08:17:24;95933.84;;;19.51;74.18
33454;BME280;39400;49.744;7.012;2023-07-20T08:19:50;95939.56;;;18.99;74.05
33454;BME280;39400;49.744;7.012;2023-07-20T08:22:15;95933.00;;;19.28;73.33
33454;BME280;39400;49.744;7.012;2023-07-20T08:24:41;95935.41;;;19.95;70.74
33454;BME280;39400;49.744;7.012;2023-07-20T08:27:07;95941.91;;;19.92;70.53
33454;BME280;39400;49.744;7.012;2023-07-20T08:29:33;95930.63;;;19.05;73.67
33454;BME280;39400;49.744;7.012;2023-07-20T08:31:58;95939.22;;;19.67;71.11
33454;BME280;39400;49.744;7.012;2023-07-20T08:34:23;95933.53;;;19.92;70.78
33454;BME280;39400;49.744;7.012;2023-07-20T08:36:49;95938.25;;;19.61;71.93
33454;BME280;39400;49.744;7.012;2023-07-20T08:39:14;95935.41;;;19.95;71.57
33454;BME280;39400;49.744;7.012;2023-07-20T08:41:42;95932.78;;;20.23;69.90
33454;BME280;39400;49.744;7.012;2023-07-20T08:44:08;95938.91;;;19.87;70.04
33454;BME280;39400;49.744;7.012;2023-07-20T08:46:35;95929.16;;;20.94;67.64
33454;BME280;39400;49.744;7.012;2023-07-20T08:49:03;95937.16;;;20.74;68.60
33454;BME280;39400;49.744;7.012;2023-07-20T08:51:29;95937.47;;;21.34;67.01
33454;BME280;39400;49.744;7.012;2023-07-20T08:53:54;95932.44;;;20.21;69.05
33454;BME280;39400;49.744;7.012;2023-07-20T08:56:20;95941.13;;;19.70;70.01
33454;BME280;39400;49.744;7.012;2023-07-20T08:58:46;95932.25;;;20.15;68.53
33454;BME280;39400;49.744;7.012;2023-07-20T09:01:12;95925.16;;;20.55;66.17
33454;BME280;39400;49.744;7.012;2023-07-20T09:03:38;95928.63;;;19.62;68.96
33454;BME280;39400;49.744;7.012;2023-07-20T09:06:03;95936.31;;;19.92;69.11
33454;BME280;39400;49.744;7.012;2023-07-20T09:08:29;95936.31;;;19.92;68.19
33454;BME280;39400;49.744;7.012;2023-07-20T09:10:54;95935.63;;;20.41;67.25
33454;BME280;39400;49.744;7.012;2023-07-20T09:13:19;95927.81;;;20.27;67.25
33454;BME280;39400;49.744;7.012;2023-07-20T09:15:52;95929.97;;;20.54;67.08
33454;BME280;39400;49.744;7.012;2023-07-20T09:20:50;95930.75;;;20.55;66.66
33454;BME280;39400;49.744;7.012;2023-07-20T09:23:16;95926.63;;;20.69;67.01
33454;BME280;39400;49.744;7.012;2023-07-20T09:25:41;95922.16;;;20.49;67.15
33454;BME280;39400;49.744;7.012;2023-07-20T09:28:06;95931.66;;;20.92;66.63
33454;BME280;39400;49.744;7.012;2023-07-20T09:30:32;95922.91;;;20.72;65.67
33454;BME280;39400;49.744;7.012;2023-07-20T09:32:57;95931.53;;;21.32;64.06
33454;BME280;39400;49.744;7.012;2023-07-20T09:35:23;95929.69;;;21.57;62.35
33454;BME280;39400;49.744;7.012;2023-07-20T09:37:54;95922.81;;;21.85;62.00
33454;BME280;39400;49.744;7.012;2023-07-20T09:40:20;95923.81;;;21.46;61.00
33454;BME280;39400;49.744;7.012;2023-07-20T09:42:46;95916.03;;;21.59;60.98
33454;BME280;39400;49.744;7.012;2023-07-20T09:45:12;95918.81;;;21.68;60.82
33454;BME280;39400;49.744;7.012;2023-07-20T09:47:38;95924.56;;;21.74;60.88
33454;BME280;39400;49.744;7.012;2023-07-20T09:50:05;95926.09;;;21.84;60.27
33454;BME280;39400;49.744;7.012;2023-07-20T09:52:31;95917.25;;;21.76;61.21
33454;BME280;39400;49.744;7.012;2023-07-20T09:54:57;95915.22;;;21.22;61.87
33454;BME280;39400;49.744;7.012;2023-07-20T09:57:23;95920.00;;;21.12;63.48
33454;BME280;39400;49.744;7.012;2023-07-20T09:59:50;95910.09;;;21.57;62.18
33454;BME280;39400;49.744;7.012;2023-07-20T10:02:28;95916.13;;;21.92;61.18
33454;BME280;39400;49.744;7.012;2023-07-20T10:05:02;95912.59;;;21.82;59.75
33454;BME280;39400;49.744;7.012;2023-07-20T10:07:30;95910.28;;;22.33;58.63
33454;BME280;39400;49.744;7.012;2023-07-20T10:09:56;95915.38;;;21.73;59.98
33454;BME280;39400;49.744;7.012;2023-07-20T10:12:25;95911.38;;;21.56;59.80
33454;BME280;39400;49.744;7.012;2023-07-20T10:14:57;95907.75;;;21.28;60.87
33454;BME280;39400;49.744;7.012;2023-07-20T10:17:25;95909.97;;;21.51;60.90
33454;BME280;39400;49.744;7.012;2023-07-20T10:19:54;95903.38;;;21.82;61.05
33454;BME280;39400;49.744;7.012;2023-07-20T10:22:26;95891.59;;;22.39;60.04
33454;BME280;39400;49.744;7.012;2023-07-20T10:24:51;95897.00;;;22.51;58.10
33454;BME280;39400;49.744;7.012;2023-07-20T10:27:17;95897.09;;;22.57;57.22
33454;BME280;39400;49.744;7.012;2023-07-20T10:29:43;95911.47;;;22.50;54.23
33454;BME280;39400;49.744;7.012;2023-07-20T10:32:09;95889.25;;;22.37;54.64
33454;BME280;39400;49.744;7.012;2023-07-20T10:34:34;95887.94;;;22.14;55.44
33454;BME280;39400;49.744;7.012;2023-07-20T10:37:00;95882.13;;;21.75;56.21
33454;BME280;39400;49.744;7.012;2023-07-20T10:39:27;95867.63;;;22.38;55.30
33454;BME280;39400;49.744;7.012;2023-07-20T10:42:11;95883.88;;;22.58;54.20
33454;BME280;39400;49.744;7.012;2023-07-20T10:44:37;95874.47;;;22.37;53.77
33454;BME280;39400;49.744;7.012;2023-07-20T10:47:08;95868.03;;;22.78;54.22
33454;BME280;39400;49.744;7.012;2023-07-20T10:49:34;95869.75;;;23.24;54.69
33454;BME280;39400;49.744;7.012;2023-07-20T10:52:03;95867.59;;;23.04;52.95
33454;BME280;39400;49.744;7.012;2023-07-20T10:56:58;95863.75;;;23.16;52.61
33454;BME280;39400;49.744;7.012;2023-07-20T10:59:46;95868.59;;;22.35;52.45
33454;BME280;39400;49.744;7.012;2023-07-20T11:02:12;95860.50;;;22.85;51.88
33454;BME280;39400;49.744;7.012;2023-07-20T11:04:39;95858.78;;;23.35;51.13
33454;BME280;39400;49.744;7.012;2023-07-20T11:07:05;95853.56;;;22.47;52.45
33454;BME280;39400;49.744;7.012;2023-07-20T11:09:34;95853.56;;;22.47;52.31
33454;BME280;39400;49.744;7.012;2023-07-20T11:12:10;95855.78;;;22.00;52.21
33454;BME280;39400;49.744;7.012;2023-07-20T11:14:40;95848.06;;;22.28;51.84
33454;BME280;39400;49.744;7.012;2023-07-20T11:17:15;95867.19;;;22.63;52.92
33454;BME280;39400;49.744;7.012;2023-07-20T11:19:40;95857.69;;;22.94;53.45
33454;BME280;39400;49.744;7.012;2023-07-20T11:22:06;95854.66;;;22.73;53.77
33454;BME280;39400;49.744;7.012;2023-07-20T11:24:32;95856.38;;;23.04;54.06
33454;BME280;39400;49.744;7.012;2023-07-20T11:26:57;95854.13;;;23.47;53.21
33454;BME280;39400;49.744;7.012;2023-07-20T11:29:23;95847.81;;;23.91;51.27
33454;BME280;39400;49.744;7.012;2023-07-20T11:31:49;95849.44;;;23.14;53.31
33454;BME280;39400;49.744;7.012;2023-07-20T11:34:18;95843.44;;;23.21;52.88
33454;BME280;39400;49.744;7.012;2023-07-20T11:36:45;95842.06;;;24.00;50.80
33454;BME280;39400;49.744;7.012;2023-07-20T11:39:13;95842.16;;;23.61;50.07
33454;BME280;39400;49.744;7.012;2023-07-20T11:41:39;95844.44;;;23.33;51.50
33454;BME280;39400;49.744;7.012;2023-07-20T11:44:09;95840.28;;;23.43;51.09
33454;BME280;39400;49.744;7.012;2023-07-20T11:46:35;95845.50;;;23.36;51.09
33454;BME280;39400;49.744;7.012;2023-07-20T11:49:01;95852.41;;;22.87;51.95
33454;BME280;39400;49.744;7.012;2023-07-20T11:51:27;95850.50;;;22.93;51.39
33454;BME280;39400;49.744;7.012;2023-07-20T11:53:53;95851.63;;;23.10;51.38
33454;BME280;39400;49.744;7.012;2023-07-20T11:56:19;95844.22;;;23.22;51.05
33454;BME280;39400;49.744;7.012;2023-07-20T11:58:45;95844.81;;;23.26;48.32
33454;BME280;39400;49.744;7.012;2023-07-20T12:01:12;95848.81;;;23.49;46.96
33454;BME280;39400;49.744;7.012;2023-07-20T12:03:38;95825.69;;;23.54;47.62
33454;BME280;39400;49.744;7.012;2023-07-20T12:06:07;95835.88;;;24.11;48.21
33454;BME280;39400;49.744;7.012;2023-07-20T12:08:32;95830.25;;;23.66;46.58
33454;BME280;39400;49.744;7.012;2023-07-20T12:10:58;95828.31;;;23.72;48.77
33454;BME280;39400;49.744;7.012;2023-07-20T12:13:23;95823.22;;;23.71;47.71
33454;BME280;39400;49.744;7.012;2023-07-20T12:15:48;95829.03;;;23.67;48.35
33454;BME280;39400;49.744;7.012;2023-07-20T12:18:13;95816.56;;;23.30;46.98
33454;BME280;39400;49.744;7.012;2023-07-20T12:20:39;95820.66;;;23.43;47.65
33454;BME280;39400;49.744;7.012;2023-07-20T12:23:08;95826.88;;;23.92;46.43
33454;BME280;39400;49.744;7.012;2023-07-20T12:25:37;95828.06;;;23.70;47.33
33454;BME280;39400;49.744;7.012;2023-07-20T12:28:29;95829.56;;;23.42;48.94
33454;BME280;39400;49.744;7.012;2023-07-20T12:30:54;95827.13;;;23.35;49.78
33454;BME280;39400;49.744;7.012;2023-07-20T12:33:19;95818.09;;;23.84;47.93
33454;BME280;39400;49.744;7.012;2023-07-20T12:35:45;95820.31;;;23.80;47.84
33454;BME280;39400;49.744;7.012;2023-07-20T12:38:10;95810.50;;;23.61;48.73
33454;BME280;39400;49.744;7.012;2023-07-20T12:40:36;95818.53;;;24.12;46.54
33454;BME280;39400;49.744;7.012;2023-07-20T12:43:01;95802.50;;;24.68;45.68
33454;BME280;39400;49.744;7.012;2023-07-20T12:45:26;95806.13;;;24.19;43.94
33454;BME280;39400;49.744;7.012;2023-07-20T12:47:52;95800.66;;;24.65;44.02
33454;BME280;39400;49.744;7.012;2023-07-20T12:50:17;95792.38;;;25.18;41.72
33454;BME280;39400;49.744;7.012;2023-07-20T12:52:42;95794.69;;;24.23;43.44
33454;BME280;39400;49.744;7.012;2023-07-20T12:55:09;95796.97;;;24.39;43.45
33454;BME280;39400;49.744;7.012;2023-07-20T12:57:35;95794.84;;;24.34;42.24
33454;BME280;39400;49.744;7.012;2023-07-20T13:00:02;95795.13;;;24.91;42.12
33454;BME280;39400;49.744;7.012;2023-07-20T13:02:28;95788.63;;;25.52;42.34
33454;BME280;39400;49.744;7.012;2023-07-20T13:04:53;95781.16;;;25.75;41.75
33454;BME280;39400;49.744;7.012;2023-07-20T13:07:29;95786.56;;;25.47;42.79
33454;BME280;39400;49.744;7.012;2023-07-20T13:09:55;95786.91;;;24.88;42.15